Time;durP1;ratioP1;P1;durP2;ratioP2;P2;SDS_P1;SDS_P2;PMS_P1;PMS_P2;Temp;Humidity;BMP_temperature;BMP_pressure;BME280_temperature;BME280_humidity;BME280_pressure;Samples;Min_cycle;Max_cycle;Signal;HPM_P1;HPM_P2
2020/12/19 00:00:59;;;;;;;14.95;8.05;;;7.60;99.90;;;;;;4157982;28;20029;-82
2020/12/19 00:02:59;;;;;;;11.73;7.57;;;7.70;99.90;;;;;;4160216;28;20433;-82
2020/12/19 00:05:01;;;;;;;15.07;7.55;;;7.70;99.90;;;;;;4163719;28;20460;-82
2020/12/19 00:07:03;;;;;;;11.97;7.63;;;7.70;99.90;;;;;;4158780;28;20041;-82
2020/12/19 00:09:04;;;;;;;13.18;8.27;;;7.70;99.90;;;;;;4158182;28;20048;-82
2020/12/19 00:11:06;;;;;;;12.23;6.90;;;7.70;99.90;;;;;;4159585;28;20053;-82
2020/12/19 00:13:07;;;;;;;10.60;7.28;;;7.70;99.90;;;;;;4142661;28;20034;-81
2020/12/19 00:15:08;;;;;;;10.48;6.88;;;7.70;99.90;;;;;;4191148;28;20033;-82
2020/12/19 00:17:08;;;;;;;10.50;7.03;;;7.70;99.90;;;;;;4142851;28;20034;-82
2020/12/19 00:19:09;;;;;;;13.90;7.97;;;7.70;99.90;;;;;;4159873;28;20421;-82
2020/12/19 00:21:10;;;;;;;10.23;6.95;;;7.70;99.90;;;;;;4147121;28;20116;-82
2020/12/19 00:23:11;;;;;;;10.77;7.22;;;7.70;99.90;;;;;;4163156;28;20025;-82
2020/12/19 00:25:11;;;;;;;12.43;7.60;;;7.80;99.90;;;;;;4163323;28;20083;-81
2020/12/19 00:27:12;;;;;;;12.45;7.63;;;7.80;99.90;;;;;;4157135;28;20033;-81
2020/12/19 00:29:13;;;;;;;10.27;7.03;;;7.80;99.90;;;;;;4160835;28;20030;-81
2020/12/19 00:31:14;;;;;;;17.92;8.18;;;7.80;99.90;;;;;;4160225;28;20040;-82
2020/12/19 00:33:14;;;;;;;10.88;7.10;;;7.80;99.90;;;;;;4161525;28;20396;-82
2020/12/19 00:35:15;;;;;;;10.82;7.20;;;7.80;99.90;;;;;;4161063;28;20052;-82
2020/12/19 00:37:15;;;;;;;11.38;7.05;;;7.80;99.90;;;;;;4162686;28;20038;-82
2020/12/19 00:39:16;;;;;;;12.18;7.50;;;7.80;99.90;;;;;;4171159;28;20036;-82
2020/12/19 00:41:20;;;;;;;13.43;7.15;;;7.80;99.90;;;;;;4146695;28;20404;-82
2020/12/19 00:43:21;;;;;;;13.63;8.65;;;7.80;99.90;;;;;;4162798;28;20095;-82
2020/12/19 00:45:22;;;;;;;11.73;8.05;;;7.80;99.90;;;;;;4164975;28;20534;-82
2020/12/19 00:47:24;;;;;;;12.88;8.32;;;7.80;99.90;;;;;;4161855;28;20045;-82
2020/12/19 00:49:25;;;;;;;12.88;7.68;;;7.80;99.90;;;;;;4147294;28;20507;-82
2020/12/19 00:51:25;;;;;;;12.25;8.20;;;7.80;99.90;;;;;;4120492;28;20042;-82
2020/12/19 00:53:26;;;;;;;12.30;8.27;;;7.80;99.90;;;;;;4161382;28;20084;-82
2020/12/19 00:55:27;;;;;;;13.52;8.43;;;7.80;99.90;;;;;;4161044;28;20033;-82
2020/12/19 00:57:31;;;;;;;13.48;8.13;;;7.80;99.90;;;;;;4144145;28;20034;-82
2020/12/19 00:59:32;;;;;;;12.63;8.02;;;7.80;99.90;;;;;;4154415;28;20567;-82
2020/12/19 01:01:33;;;;;;;12.48;7.90;;;7.80;99.90;;;;;;4160617;28;20047;-82
2020/12/19 01:03:33;;;;;;;14.05;7.72;;;7.80;99.90;;;;;;4160696;28;20034;-82
2020/12/19 01:05:34;;;;;;;10.75;7.70;;;7.80;99.90;;;;;;4163761;28;20542;-82
2020/12/19 01:07:39;;;;;;;10.77;7.78;;;7.80;99.90;;;;;;4163742;28;20025;-82
2020/12/19 01:09:39;;;;;;;12.20;7.97;;;7.80;99.90;;;;;;4144549;28;20022;-82
2020/12/19 01:11:40;;;;;;;13.23;7.78;;;7.80;99.90;;;;;;4160332;28;20589;-82
2020/12/19 01:13:41;;;;;;;11.38;7.90;;;7.80;99.90;;;;;;4143833;28;20433;-82
2020/12/19 01:15:42;;;;;;;11.20;7.63;;;7.80;99.90;;;;;;4162798;28;20088;-82
2020/12/19 01:17:48;;;;;;;14.18;8.48;;;7.80;99.90;;;;;;4151424;28;20030;-82
2020/12/19 01:19:49;;;;;;;12.82;7.78;;;7.80;99.90;;;;;;4179298;28;20021;-82
2020/12/19 01:21:49;;;;;;;15.45;7.72;;;7.80;99.90;;;;;;4161663;28;20141;-82
2020/12/19 01:23:51;;;;;;;15.40;8.30;;;7.80;99.90;;;;;;4161475;28;20413;-82
2020/12/19 01:25:52;;;;;;;15.55;7.57;;;7.80;99.90;;;;;;4161933;28;20412;-82
2020/12/19 01:27:52;;;;;;;13.10;7.35;;;7.80;99.90;;;;;;4162312;28;20029;-82
2020/12/19 01:29:53;;;;;;;14.05;8.95;;;7.80;99.90;;;;;;4145047;28;20026;-82
2020/12/19 01:31:53;;;;;;;12.60;7.97;;;7.80;99.90;;;;;;4160737;28;20078;-82
2020/12/19 01:33:54;;;;;;;10.48;7.10;;;7.80;99.90;;;;;;4145920;28;20032;-82
2020/12/19 01:35:55;;;;;;;12.15;7.95;;;7.80;99.90;;;;;;4148846;28;20029;-82
2020/12/19 01:37:57;;;;;;;13.40;8.48;;;7.80;99.90;;;;;;4162464;28;20682;-82
2020/12/19 01:39:59;;;;;;;13.43;7.63;;;7.80;99.90;;;;;;4153644;28;20022;-82
2020/12/19 01:42:08;;;;;;;14.07;7.88;;;7.80;99.90;;;;;;4162801;28;20060;-82
2020/12/19 01:44:09;;;;;;;12.52;7.63;;;7.80;99.90;;;;;;4162958;28;20036;-82
2020/12/19 01:46:10;;;;;;;13.13;7.88;;;7.80;99.90;;;;;;4164722;28;20049;-82
2020/12/19 01:48:27;;;;;;;13.13;7.35;;;7.80;99.90;;;;;;4161144;28;20034;-82
2020/12/19 01:50:28;;;;;;;14.73;8.15;;;7.80;99.90;;;;;;4144615;28;20064;-82
2020/12/19 01:52:30;;;;;;;11.15;6.90;;;7.80;99.90;;;;;;4161251;28;20029;-82
2020/12/19 01:54:31;;;;;;;12.93;7.85;;;7.80;99.90;;;;;;4145162;28;20030;-82
2020/12/19 01:56:44;;;;;;;11.65;7.57;;;7.80;99.90;;;;;;4160512;28;20033;-82
2020/12/19 01:58:45;;;;;;;11.35;7.55;;;7.80;99.90;;;;;;4143349;28;20123;-82
2020/12/19 02:00:46;;;;;;;11.80;8.40;;;7.80;99.90;;;;;;4160371;28;20034;-82
2020/12/19 02:02:47;;;;;;;13.38;8.27;;;7.70;99.90;;;;;;4143321;28;20037;-82
2020/12/19 02:04:48;;;;;;;12.85;8.10;;;7.80;99.90;;;;;;4164516;28;20032;-82
2020/12/19 02:06:53;;;;;;;13.50;7.95;;;7.70;99.90;;;;;;4143998;28;20094;-82
2020/12/19 02:09:00;;;;;;;12.90;7.97;;;7.70;99.90;;;;;;4149789;28;20037;-82
2020/12/19 02:11:05;;;;;;;14.57;8.15;;;7.80;99.90;;;;;;4152291;28;20058;-82
2020/12/19 02:13:06;;;;;;;15.00;8.65;;;7.80;99.90;;;;;;4161343;28;20389;-82
2020/12/19 02:15:07;;;;;;;15.45;8.88;;;7.80;99.90;;;;;;4173942;28;20049;-82
2020/12/19 02:17:11;;;;;;;12.07;7.45;;;7.70;99.90;;;;;;4145190;28;20472;-82
2020/12/19 02:19:14;;;;;;;13.15;8.27;;;7.80;99.90;;;;;;4145295;28;20657;-82
2020/12/19 02:21:14;;;;;;;11.80;7.82;;;7.80;99.90;;;;;;4161310;28;20041;-82
2020/12/19 02:23:15;;;;;;;15.15;9.60;;;7.80;99.90;;;;;;4140664;28;20056;-82
2020/12/19 02:25:17;;;;;;;11.73;7.57;;;7.80;99.90;;;;;;4167192;28;20049;-82
2020/12/19 02:27:17;;;;;;;14.13;7.75;;;7.80;99.90;;;;;;4145043;28;20029;-82
2020/12/19 02:29:18;;;;;;;12.48;7.45;;;7.80;99.90;;;;;;4145484;28;20041;-82
2020/12/19 02:31:20;;;;;;;12.18;7.60;;;7.80;99.90;;;;;;4161406;28;20051;-82
2020/12/19 02:33:21;;;;;;;12.05;7.18;;;7.80;99.90;;;;;;4163212;28;20515;-82
2020/12/19 02:35:23;;;;;;;13.93;8.15;;;7.80;99.90;;;;;;4145673;28;20042;-82
2020/12/19 02:37:24;;;;;;;12.40;8.30;;;7.80;99.90;;;;;;4131860;28;20053;-82
2020/12/19 02:39:24;;;;;;;13.05;7.68;;;7.90;99.90;;;;;;4162660;28;20087;-82
2020/12/19 02:41:25;;;;;;;13.05;7.88;;;7.80;99.90;;;;;;4160384;28;20433;-82
2020/12/19 02:43:25;;;;;;;12.48;7.97;;;7.80;99.90;;;;;;4159285;28;20316;-82
2020/12/19 02:45:26;;;;;;;12.95;7.55;;;7.80;99.90;;;;;;4161816;28;20060;-82
2020/12/19 02:47:27;;;;;;;12.93;7.43;;;7.90;99.90;;;;;;4143288;28;20049;-82
2020/12/19 02:49:27;;;;;;;12.77;7.70;;;7.90;99.90;;;;;;4161138;28;20033;-82
2020/12/19 02:51:28;;;;;;;14.32;7.78;;;7.80;99.90;;;;;;4144085;28;21578;-82
2020/12/19 02:53:29;;;;;;;13.20;7.45;;;7.90;99.90;;;;;;4178300;28;20465;-82
2020/12/19 02:55:29;;;;;;;10.80;6.93;;;7.90;99.90;;;;;;4162945;28;20095;-82
2020/12/19 02:57:30;;;;;;;10.82;7.50;;;7.80;99.90;;;;;;4144713;28;20148;-82
2020/12/19 02:59:30;;;;;;;12.40;7.25;;;7.80;99.90;;;;;;4145477;28;20038;-82
2020/12/19 03:01:31;;;;;;;11.70;7.75;;;7.80;99.90;;;;;;4162809;28;20035;-82
2020/12/19 03:03:32;;;;;;;13.65;7.13;;;7.90;99.90;;;;;;4161596;28;20034;-82
2020/12/19 03:05:33;;;;;;;11.52;7.38;;;7.90;99.90;;;;;;4145487;28;20026;-82
2020/12/19 03:07:34;;;;;;;13.68;7.97;;;7.90;99.90;;;;;;4161888;28;20029;-82
2020/12/19 03:09:34;;;;;;;12.50;7.75;;;7.90;99.90;;;;;;4160447;28;20026;-82
2020/12/19 03:11:35;;;;;;;11.02;7.30;;;7.90;99.90;;;;;;4142776;28;20045;-82
2020/12/19 03:13:37;;;;;;;14.15;7.85;;;7.90;99.90;;;;;;4158848;28;20428;-82
2020/12/19 03:15:38;;;;;;;14.82;8.23;;;7.90;99.90;;;;;;4142420;28;20040;-81
2020/12/19 03:17:38;;;;;;;13.40;8.10;;;7.90;99.90;;;;;;4142775;28;20045;-82
2020/12/19 03:19:39;;;;;;;12.82;7.65;;;7.90;99.90;;;;;;4160152;28;20025;-82
2020/12/19 03:21:39;;;;;;;13.70;8.05;;;7.90;99.90;;;;;;4158503;28;20141;-82
2020/12/19 03:23:40;;;;;;;11.85;7.50;;;7.90;99.90;;;;;;4153167;28;20112;-82
2020/12/19 03:25:41;;;;;;;11.90;7.45;;;7.90;99.90;;;;;;4158534;28;20351;-82
2020/12/19 03:27:52;;;;;;;11.25;7.40;;;7.90;99.90;;;;;;4160056;28;20134;-82
2020/12/19 03:29:53;;;;;;;11.55;7.45;;;7.90;99.90;;;;;;4161501;28;20796;-82
2020/12/19 03:31:53;;;;;;;11.43;7.53;;;7.90;99.90;;;;;;4159963;28;20156;-82
2020/12/19 03:33:54;;;;;;;13.68;8.07;;;8.00;99.90;;;;;;4162045;28;20358;-82
2020/12/19 03:35:55;;;;;;;11.68;7.75;;;7.90;99.90;;;;;;4160093;28;20504;-82
2020/12/19 03:37:55;;;;;;;11.27;7.13;;;8.00;99.90;;;;;;4159871;28;20447;-82
2020/12/19 03:39:56;;;;;;;13.13;7.82;;;7.90;99.90;;;;;;4159012;28;20029;-82
2020/12/19 03:41:56;;;;;;;12.18;7.95;;;7.90;99.90;;;;;;4158023;28;20070;-82
2020/12/19 03:43:57;;;;;;;12.75;7.40;;;7.90;99.90;;;;;;4157800;28;20661;-82
2020/12/19 03:45:58;;;;;;;11.30;7.10;;;7.90;99.90;;;;;;4159683;28;20014;-82
2020/12/19 03:47:59;;;;;;;12.00;7.78;;;7.90;99.90;;;;;;4141195;28;20030;-82
2020/12/19 03:50:00;;;;;;;12.45;7.45;;;7.90;99.90;;;;;;4159145;28;20093;-82
2020/12/19 03:52:00;;;;;;;11.40;7.43;;;7.90;99.90;;;;;;4158201;28;20049;-82
2020/12/19 03:54:01;;;;;;;11.60;6.95;;;7.90;99.90;;;;;;4141486;28;20089;-82
2020/12/19 03:56:02;;;;;;;10.88;7.15;;;7.90;99.90;;;;;;4146676;28;20025;-82
2020/12/19 03:58:02;;;;;;;12.68;7.68;;;7.90;99.90;;;;;;4175140;28;20036;-82
2020/12/19 04:00:05;;;;;;;11.88;6.97;;;7.90;99.90;;;;;;4158752;28;20037;-82
2020/12/19 04:02:06;;;;;;;14.68;8.30;;;7.90;99.90;;;;;;4142162;28;20501;-82
2020/12/19 04:04:07;;;;;;;14.32;8.35;;;7.90;99.90;;;;;;4142095;28;20022;-82
2020/12/19 04:06:07;;;;;;;12.68;7.72;;;7.90;99.90;;;;;;4158600;28;20021;-82
2020/12/19 04:08:08;;;;;;;11.65;7.40;;;7.80;99.90;;;;;;4141524;28;20114;-82
2020/12/19 04:10:09;;;;;;;15.25;8.75;;;7.80;99.90;;;;;;4158491;28;20030;-82
2020/12/19 04:12:09;;;;;;;14.05;9.00;;;7.80;99.90;;;;;;4181708;28;20021;-82
2020/12/19 04:14:10;;;;;;;11.15;7.25;;;7.80;99.90;;;;;;4141612;28;20549;-82
2020/12/19 04:16:11;;;;;;;14.18;8.10;;;7.80;99.90;;;;;;4158213;28;20030;-82
2020/12/19 04:18:11;;;;;;;11.75;8.27;;;7.80;99.90;;;;;;4163329;28;20055;-82
2020/12/19 04:20:12;;;;;;;11.50;7.57;;;7.80;99.90;;;;;;4141545;28;20121;-82
2020/12/19 04:22:12;;;;;;;14.73;9.27;;;7.80;99.90;;;;;;4161131;28;20030;-82
2020/12/19 04:24:23;;;;;;;13.70;8.00;;;7.80;99.90;;;;;;4133457;28;20033;-81
2020/12/19 04:26:24;;;;;;;13.80;8.02;;;7.80;99.90;;;;;;4166799;28;20056;-81
2020/12/19 04:28:25;;;;;;;14.18;9.07;;;7.80;99.90;;;;;;4140875;28;20034;-82
2020/12/19 04:30:26;;;;;;;13.93;8.15;;;7.80;99.90;;;;;;4140695;28;20207;-82
2020/12/19 04:32:27;;;;;;;13.10;7.82;;;7.80;99.90;;;;;;4141259;28;20096;-82
2020/12/19 04:34:29;;;;;;;16.08;9.40;;;7.80;99.90;;;;;;4157699;28;20112;-82
2020/12/19 04:36:30;;;;;;;16.83;9.30;;;7.80;99.90;;;;;;4141269;28;20034;-82
2020/12/19 04:38:30;;;;;;;13.75;9.00;;;7.80;99.90;;;;;;4158291;28;20038;-82
2020/12/19 04:40:31;;;;;;;13.43;8.95;;;7.80;99.90;;;;;;4141726;28;20133;-82
2020/12/19 04:42:35;;;;;;;19.20;9.90;;;7.80;99.90;;;;;;4157319;28;20046;-82
2020/12/19 04:44:37;;;;;;;13.05;8.30;;;7.70;99.90;;;;;;4158055;28;20045;-82
2020/12/19 04:46:43;;;;;;;15.98;9.20;;;7.80;99.90;;;;;;4154065;28;20044;-82
2020/12/19 04:48:45;;;;;;;15.02;9.68;;;7.70;99.90;;;;;;4141501;28;20393;-82
2020/12/19 04:50:46;;;;;;;18.10;9.85;;;7.70;99.90;;;;;;4150103;28;20041;-82
2020/12/19 04:52:47;;;;;;;18.05;10.50;;;7.70;99.90;;;;;;4160124;28;20025;-82
2020/12/19 04:54:49;;;;;;;13.80;9.20;;;7.70;99.90;;;;;;4159311;28;20029;-82
2020/12/19 04:56:54;;;;;;;13.45;9.07;;;7.70;99.90;;;;;;4157701;28;20040;-82
2020/12/19 04:58:58;;;;;;;14.13;9.15;;;7.70;99.90;;;;;;4157562;28;20409;-82
2020/12/19 05:00:59;;;;;;;14.82;9.25;;;7.70;99.90;;;;;;4160303;28;20031;-82
2020/12/19 05:02:59;;;;;;;19.17;10.63;;;7.70;99.90;;;;;;4157886;28;20049;-82
2020/12/19 05:05:05;;;;;;;17.83;9.88;;;7.70;99.90;;;;;;4156981;28;20029;-82
2020/12/19 05:07:07;;;;;;;17.50;9.60;;;7.60;99.90;;;;;;4162735;28;20034;-82
2020/12/19 05:09:09;;;;;;;15.55;9.73;;;7.60;99.90;;;;;;4162927;28;20051;-82
2020/12/19 05:11:12;;;;;;;16.15;10.05;;;7.60;99.90;;;;;;4167221;28;20077;-82
2020/12/19 05:13:12;;;;;;;15.50;8.90;;;7.60;99.90;;;;;;4162220;28;20030;-82
2020/12/19 05:15:13;;;;;;;14.38;9.52;;;7.60;99.90;;;;;;4162290;28;20539;-82
2020/12/19 05:17:15;;;;;;;16.02;10.13;;;7.70;99.90;;;;;;4147565;28;20021;-82
2020/12/19 05:19:17;;;;;;;15.13;9.70;;;7.60;99.90;;;;;;4152475;28;20030;-82
2020/12/19 05:21:19;;;;;;;14.32;8.98;;;7.60;99.90;;;;;;4162301;28;20045;-82
2020/12/19 05:23:21;;;;;;;18.02;10.35;;;7.60;99.90;;;;;;4162508;28;20052;-82
2020/12/19 05:25:24;;;;;;;16.60;9.10;;;7.60;99.90;;;;;;4146276;28;20034;-82
2020/12/19 05:27:26;;;;;;;15.13;9.77;;;7.60;99.90;;;;;;4152086;28;20022;-82
2020/12/19 05:29:26;;;;;;;15.70;10.20;;;7.60;99.90;;;;;;4162213;28;20056;-82
2020/12/19 05:31:27;;;;;;;19.85;11.00;;;7.50;99.90;;;;;;4145319;28;20038;-82
2020/12/19 05:33:37;;;;;;;17.33;10.68;;;7.60;99.90;;;;;;4162404;28;20087;-82
2020/12/19 05:35:39;;;;;;;14.82;10.25;;;7.50;99.90;;;;;;4161732;28;20447;-82
2020/12/19 05:38:09;;;;;;;16.05;10.43;;;7.50;99.90;;;;;;4160598;28;20688;-81
2020/12/19 05:40:13;;;;;;;16.85;9.90;;;7.50;99.90;;;;;;4161351;28;20077;-81
2020/12/19 05:42:21;;;;;;;18.20;10.43;;;7.50;99.90;;;;;;4159207;28;20116;-82
2020/12/19 05:44:23;;;;;;;17.85;10.13;;;7.50;99.90;;;;;;4159142;28;20225;-82
2020/12/19 05:46:34;;;;;;;19.02;10.95;;;7.50;99.90;;;;;;4160095;28;20064;-82
2020/12/19 05:48:35;;;;;;;16.83;10.18;;;7.50;99.90;;;;;;4150794;28;20065;-82
2020/12/19 05:50:38;;;;;;;16.42;10.18;;;7.50;99.90;;;;;;4160325;28;20118;-82
2020/12/19 05:52:39;;;;;;;;;;;7.50;99.90;;;;;;4161179;28;20034;-82
2020/12/19 05:54:41;;;;;;;17.42;11.02;;;7.50;99.90;;;;;;4143553;28;19928;-82
2020/12/19 05:56:45;;;;;;;16.58;10.15;;;7.50;99.90;;;;;;4160378;28;20033;-82
2020/12/19 05:58:46;;;;;;;18.95;11.20;;;7.40;99.90;;;;;;4161368;28;20052;-82
2020/12/19 06:00:48;;;;;;;16.00;9.80;;;7.40;99.90;;;;;;4160838;28;20032;-82
2020/12/19 06:02:50;;;;;;;19.15;9.80;;;7.50;99.90;;;;;;4161730;28;20057;-82
2020/12/19 06:04:52;;;;;;;13.27;9.10;;;7.50;99.90;;;;;;4145565;28;20036;-82
2020/12/19 06:06:55;;;;;;;15.90;9.70;;;7.50;99.90;;;;;;4164137;28;20124;-82
2020/12/19 06:08:56;;;;;;;14.88;10.05;;;7.50;99.90;;;;;;4170202;28;20029;-82
2020/12/19 06:10:58;;;;;;;16.80;9.70;;;7.50;99.90;;;;;;4159875;28;20038;-82
2020/12/19 06:13:18;;;;;;;16.73;10.50;;;7.50;99.90;;;;;;4144075;28;20064;-82
2020/12/19 06:15:55;;;;;;;16.40;9.95;;;7.50;99.90;;;;;;4144411;28;20105;-82
2020/12/19 06:18:04;;;;;;;12.52;8.23;;;7.50;99.90;;;;;;4142077;28;20030;-82
2020/12/19 06:20:07;;;;;;;15.52;10.10;;;7.50;99.90;;;;;;4158217;28;20041;-82
2020/12/19 06:22:08;;;;;;;15.98;9.98;;;7.50;99.90;;;;;;4128480;28;20472;-82
2020/12/19 06:24:09;;;;;;;11.07;8.23;;;7.50;99.90;;;;;;4161437;28;20360;-82
2020/12/19 06:26:11;;;;;;;14.40;8.85;;;7.50;99.90;;;;;;4161215;28;20041;-82
2020/12/19 06:28:37;;;;;;;14.98;9.07;;;7.50;99.90;;;;;;4151576;28;20029;-82
2020/12/19 06:30:38;;;;;;;15.38;9.45;;;7.60;99.90;;;;;;4149148;28;20568;-82
2020/12/19 06:32:39;;;;;;;13.50;9.13;;;7.60;99.90;;;;;;4162754;28;20088;-82
2020/12/19 06:34:39;;;;;;;14.52;9.40;;;7.60;99.90;;;;;;4163577;28;20041;-82
2020/12/19 06:36:47;;;;;;;15.32;9.73;;;7.60;99.90;;;;;;4125160;28;20085;-82
2020/12/19 06:38:52;;;;;;;13.25;9.40;;;7.60;99.90;;;;;;4157567;28;20060;-82
2020/12/19 06:40:53;;;;;;;19.80;10.23;;;7.60;99.90;;;;;;4162515;28;20026;-82
2020/12/19 06:43:10;;;;;;;14.63;9.25;;;7.60;99.90;;;;;;4144342;28;20033;-82
2020/12/19 06:45:23;;;;;;;15.50;9.70;;;7.60;99.90;;;;;;4144393;28;20443;-82
2020/12/19 06:47:24;;;;;;;13.68;9.20;;;7.60;99.90;;;;;;4142488;28;20041;-82
2020/12/19 06:49:24;;;;;;;14.55;8.63;;;7.70;99.90;;;;;;4158836;28;20029;-82
2020/12/19 06:51:25;;;;;;;14.70;9.35;;;7.70;99.90;;;;;;4158847;28;20096;-82
2020/12/19 06:53:28;;;;;;;19.40;10.30;;;7.70;99.90;;;;;;4159138;28;20037;-82
2020/12/19 06:55:29;;;;;;;14.48;9.35;;;7.70;99.90;;;;;;4159023;28;20037;-82
2020/12/19 06:57:31;;;;;;;15.15;9.23;;;7.70;99.90;;;;;;4159009;28;20048;-82
2020/12/19 06:59:34;;;;;;;15.70;9.30;;;7.70;99.90;;;;;;4158759;28;20607;-82
2020/12/19 07:01:34;;;;;;;;;;;7.70;99.90;;;;;;4142246;28;20425;-82
2020/12/19 07:03:36;;;;;;;13.00;8.48;;;7.70;99.90;;;;;;4142707;28;19959;-82
2020/12/19 07:05:37;;;;;;;14.40;8.52;;;7.70;99.90;;;;;;4147131;28;20034;-82
2020/12/19 07:07:38;;;;;;;13.13;8.73;;;7.70;99.90;;;;;;4146320;28;20181;-82
2020/12/19 07:09:39;;;;;;;15.73;9.25;;;7.70;99.90;;;;;;4158859;28;20373;-82
2020/12/19 07:11:41;;;;;;;13.75;9.50;;;7.70;99.90;;;;;;4159036;28;20514;-82
2020/12/19 07:13:53;;;;;;;13.60;9.00;;;7.70;99.90;;;;;;4143525;28;20040;-82
2020/12/19 07:15:53;;;;;;;16.50;8.75;;;7.70;99.90;;;;;;4162137;28;20033;-82
2020/12/19 07:17:54;;;;;;;15.13;9.40;;;7.70;99.90;;;;;;4156225;28;20184;-82
2020/12/19 07:19:59;;;;;;;15.60;10.38;;;7.70;99.90;;;;;;4157983;28;20388;-83
2020/12/19 07:22:00;;;;;;;12.77;8.60;;;7.70;99.90;;;;;;4158667;28;20473;-83
2020/12/19 07:24:01;;;;;;;16.73;10.32;;;7.70;99.90;;;;;;4162705;28;20213;-82
2020/12/19 07:26:03;;;;;;;14.52;9.65;;;7.70;99.90;;;;;;4159389;28;20025;-82
2020/12/19 07:28:04;;;;;;;15.68;9.55;;;7.80;99.90;;;;;;4159249;28;20091;-81
2020/12/19 07:30:05;;;;;;;15.32;10.10;;;7.80;99.90;;;;;;4157886;28;20113;-82
2020/12/19 07:32:05;;;;;;;15.30;9.65;;;7.80;99.90;;;;;;4142325;28;20038;-82
2020/12/19 07:34:06;;;;;;;15.48;9.25;;;7.80;99.90;;;;;;4158497;28;20120;-81
2020/12/19 07:36:08;;;;;;;15.63;9.35;;;7.80;99.90;;;;;;4146855;28;20037;-81
2020/12/19 07:38:09;;;;;;;15.73;9.47;;;7.80;99.90;;;;;;4144830;28;20499;-81
2020/12/19 07:40:09;;;;;;;16.98;10.85;;;7.80;99.90;;;;;;4166732;28;20029;-81
2020/12/19 07:42:10;;;;;;;16.10;9.38;;;7.80;99.90;;;;;;4159632;28;20029;-81
2020/12/19 07:44:17;;;;;;;16.17;10.30;;;7.80;99.90;;;;;;4143890;28;20060;-81
2020/12/19 07:46:18;;;;;;;16.67;10.90;;;7.80;99.90;;;;;;4177311;28;20055;-82
2020/12/19 07:48:18;;;;;;;14.70;9.85;;;7.80;99.90;;;;;;4160823;28;20049;-82
2020/12/19 07:50:30;;;;;;;14.57;9.88;;;7.80;99.90;;;;;;4160819;28;20559;-81
2020/12/19 07:52:30;;;;;;;18.83;10.80;;;7.80;99.90;;;;;;4161581;28;20037;-82
2020/12/19 07:54:31;;;;;;;18.73;10.32;;;7.90;99.90;;;;;;4144069;28;20030;-83
2020/12/19 07:56:32;;;;;;;16.60;10.20;;;7.90;99.90;;;;;;4159349;28;20033;-82
2020/12/19 07:58:36;;;;;;;19.23;11.15;;;7.90;99.90;;;;;;4159938;28;20046;-81
2020/12/19 08:00:37;;;;;;;16.92;11.13;;;7.90;99.90;;;;;;4158433;28;20029;-81
2020/12/19 08:02:38;;;;;;;16.75;11.18;;;7.90;99.90;;;;;;4160074;28;20446;-82
2020/12/19 08:04:39;;;;;;;15.85;10.30;;;8.00;99.90;;;;;;4142668;28;20575;-81
2020/12/19 08:06:43;;;;;;;16.38;9.73;;;7.90;99.90;;;;;;4150361;28;20025;-81
2020/12/19 08:08:56;;;;;;;15.93;9.85;;;8.00;99.90;;;;;;4160481;28;20022;-81
2020/12/19 08:11:03;;;;;;;18.92;10.73;;;8.00;99.90;;;;;;4158918;28;20037;-81
2020/12/19 08:13:08;;;;;;;17.70;10.82;;;8.00;99.90;;;;;;4160601;28;20030;-81
2020/12/19 08:15:23;;;;;;;16.70;11.05;;;8.10;99.90;;;;;;4160857;28;20037;-81
2020/12/19 08:17:25;;;;;;;16.15;10.18;;;8.10;99.90;;;;;;4143968;28;20556;-82
2020/12/19 08:19:34;;;;;;;16.30;9.68;;;8.20;99.90;;;;;;4160128;28;20409;-82
2020/12/19 08:21:36;;;;;;;20.45;10.70;;;8.20;99.90;;;;;;4160401;28;20125;-81
2020/12/19 08:23:37;;;;;;;16.98;10.60;;;8.20;99.90;;;;;;4161721;28;20393;-81
2020/12/19 08:25:38;;;;;;;18.77;11.88;;;8.30;99.90;;;;;;4144171;28;20037;-81
2020/12/19 08:27:43;;;;;;;15.73;10.93;;;8.30;99.90;;;;;;4143795;28;20034;-81
2020/12/19 08:29:43;;;;;;;17.45;10.88;;;8.30;99.90;;;;;;4154945;28;20061;-81
2020/12/19 08:31:51;;;;;;;19.60;10.65;;;8.30;99.90;;;;;;4158483;28;20129;-81
2020/12/19 08:33:52;;;;;;;15.73;10.48;;;8.30;99.90;;;;;;4158292;28;20071;-81
2020/12/19 08:35:53;;;;;;;15.88;10.10;;;8.30;99.90;;;;;;4158535;28;20033;-82
2020/12/19 08:38:26;;;;;;;17.88;11.43;;;8.30;99.90;;;;;;4157938;28;20121;-81
2020/12/19 08:40:33;;;;;;;15.77;10.15;;;8.40;99.90;;;;;;4159521;28;20107;-81
2020/12/19 08:42:35;;;;;;;16.67;10.82;;;8.40;99.90;;;;;;4161241;28;20030;-81
2020/12/19 08:44:35;;;;;;;20.93;10.20;;;8.50;99.90;;;;;;4163142;28;20044;-81
2020/12/19 08:46:36;;;;;;;13.30;8.63;;;8.40;99.90;;;;;;4146672;28;20030;-81
2020/12/19 08:48:37;;;;;;;13.23;9.15;;;8.50;99.90;;;;;;4163169;28;20096;-82
2020/12/19 08:50:41;;;;;;;15.20;10.38;;;8.50;99.90;;;;;;4161825;28;20508;-82
2020/12/19 08:52:41;;;;;;;15.85;10.18;;;8.50;99.90;;;;;;4162652;28;20052;-82
2020/12/19 08:54:59;;;;;;;16.45;10.43;;;8.60;99.90;;;;;;4147355;28;20034;-81
2020/12/19 08:56:59;;;;;;;14.65;9.63;;;8.60;99.90;;;;;;4144779;28;20122;-81
2020/12/19 08:59:00;;;;;;;17.13;10.50;;;8.60;99.90;;;;;;4163022;28;20037;-82
2020/12/19 09:01:12;;;;;;;17.92;10.32;;;8.70;99.90;;;;;;4145802;28;20033;-81
2020/12/19 09:03:30;;;;;;;15.90;9.80;;;8.70;99.90;;;;;;4146571;28;20109;-82
2020/12/19 09:05:44;;;;;;;17.35;9.45;;;8.70;99.90;;;;;;4161302;28;20045;-81
2020/12/19 09:07:55;;;;;;;15.82;9.70;;;8.80;99.90;;;;;;4145596;28;20034;-82
2020/12/19 09:09:56;;;;;;;16.83;9.88;;;8.90;99.90;;;;;;4164416;28;20033;-82
2020/12/19 09:12:14;;;;;;;16.05;10.10;;;8.90;99.90;;;;;;4161444;28;20563;-82
2020/12/19 09:14:17;;;;;;;17.60;10.80;;;8.90;99.90;;;;;;4163473;28;20034;-81
2020/12/19 09:16:17;;;;;;;15.60;10.02;;;9.00;99.90;;;;;;4146409;28;20109;-81
2020/12/19 09:18:21;;;;;;;16.45;8.93;;;9.00;99.90;;;;;;4163330;28;20029;-81
2020/12/19 09:20:23;;;;;;;14.30;8.88;;;9.10;99.90;;;;;;4162489;28;20493;-83
2020/12/19 09:22:23;;;;;;;17.52;10.10;;;9.10;99.90;;;;;;4145557;28;20034;-81
2020/12/19 09:24:25;;;;;;;14.02;9.60;;;9.10;99.90;;;;;;4178949;28;20124;-81
2020/12/19 09:26:26;;;;;;;16.50;9.80;;;9.20;99.90;;;;;;4161561;28;20116;-81
2020/12/19 09:28:29;;;;;;;15.13;9.23;;;9.20;99.90;;;;;;4145577;28;20399;-81
2020/12/19 09:30:30;;;;;;;15.13;8.93;;;9.20;99.90;;;;;;4146761;28;20724;-81
2020/12/19 09:32:30;;;;;;;15.27;10.25;;;9.30;99.90;;;;;;4161962;28;20102;-81
2020/12/19 09:34:31;;;;;;;14.98;9.50;;;9.30;99.90;;;;;;4145456;28;20477;-81
2020/12/19 09:36:31;;;;;;;15.55;9.35;;;9.30;99.90;;;;;;4162126;28;20026;-81
2020/12/19 09:38:32;;;;;;;14.52;9.15;;;9.40;99.90;;;;;;4161167;28;20168;-81
2020/12/19 09:40:33;;;;;;;15.32;9.02;;;9.40;99.90;;;;;;4161379;28;20134;-81
2020/12/19 09:42:34;;;;;;;12.35;8.27;;;9.40;99.90;;;;;;4162600;28;20094;-81
2020/12/19 09:44:34;;;;;;;13.63;8.85;;;9.50;99.90;;;;;;4162067;28;20103;-81
2020/12/19 09:46:35;;;;;;;14.85;9.73;;;9.50;99.90;;;;;;4144883;28;20112;-81
2020/12/19 09:48:35;;;;;;;12.07;8.93;;;9.60;99.90;;;;;;4161117;28;20131;-81
2020/12/19 09:50:36;;;;;;;13.77;8.70;;;9.70;99.90;;;;;;4144322;28;20111;-81
2020/12/19 09:52:38;;;;;;;14.70;8.32;;;9.70;99.90;;;;;;4146148;28;20033;-81
2020/12/19 09:54:38;;;;;;;12.83;8.10;;;9.80;99.90;;;;;;4162381;28;20088;-82
2020/12/19 09:56:40;;;;;;;14.77;8.27;;;9.90;99.90;;;;;;4146707;28;20386;-81
2020/12/19 09:58:40;;;;;;;13.40;8.73;;;9.90;99.90;;;;;;4179238;28;20397;-81
2020/12/19 10:00:41;;;;;;;13.80;8.20;;;10.00;99.90;;;;;;4148234;28;20025;-81
2020/12/19 10:02:43;;;;;;;14.05;8.95;;;10.00;99.90;;;;;;4161495;28;20037;-81
2020/12/19 10:04:49;;;;;;;14.57;8.87;;;10.10;99.90;;;;;;4160874;28;20033;-82
2020/12/19 10:06:51;;;;;;;15.20;8.75;;;10.20;99.90;;;;;;4168369;28;20041;-81
2020/12/19 10:09:00;;;;;;;13.27;8.27;;;10.20;99.90;;;;;;4160588;28;20037;-81
2020/12/19 10:11:01;;;;;;;11.27;7.68;;;10.30;99.90;;;;;;4158438;28;20120;-81
2020/12/19 10:13:03;;;;;;;12.93;8.23;;;10.30;99.90;;;;;;4162535;28;20660;-81
2020/12/19 10:15:08;;;;;;;13.55;8.05;;;10.40;99.90;;;;;;4162624;28;20049;-82
2020/12/19 10:17:09;;;;;;;15.65;8.90;;;10.40;99.90;;;;;;4158385;28;20769;-81
2020/12/19 10:19:10;;;;;;;15.70;8.63;;;10.50;99.90;;;;;;4163678;28;20964;-81
2020/12/19 10:21:11;;;;;;;13.60;8.43;;;10.50;99.90;;;;;;4162452;28;20123;-81
2020/12/19 10:23:11;;;;;;;13.95;8.43;;;10.60;99.90;;;;;;4163552;28;20033;-81
2020/12/19 10:25:12;;;;;;;13.43;8.65;;;10.60;99.90;;;;;;4146543;28;20069;-82
2020/12/19 10:27:13;;;;;;;13.07;8.07;;;10.70;99.90;;;;;;4162434;28;20563;-81
2020/12/19 10:29:14;;;;;;;14.82;7.82;;;10.70;99.90;;;;;;4162058;28;20026;-81
2020/12/19 10:31:14;;;;;;;13.68;8.20;;;10.70;99.90;;;;;;4160810;28;20056;-81
2020/12/19 10:33:15;;;;;;;11.95;7.78;;;10.80;99.90;;;;;;4161013;28;20060;-81
2020/12/19 10:35:16;;;;;;;14.43;8.43;;;10.80;99.90;;;;;;4159937;28;20068;-81
2020/12/19 10:37:17;;;;;;;13.60;8.20;;;10.90;99.90;;;;;;4169919;28;20063;-81